Time;durP1;ratioP1;P1;durP2;ratioP2;P2;SDS_P1;SDS_P2;PMS_P1;PMS_P2;Temp;Humidity;BMP_temperature;BMP_pressure;BME280_temperature;BME280_humidity;BME280_pressure;Samples;Min_cycle;Max_cycle;Signal;HPM_P1;HPM_P2
2021/10/16 00:00:24;;;;;;;7.10;3.50;;;10.20;99.90;;;;;;5057551;28;20202;-68
2021/10/16 00:02:51;;;;;;;7.90;3.47;;;10.20;99.90;;;;;;5057076;28;20209;-69
2021/10/16 00:05:19;;;;;;;7.17;3.77;;;10.20;99.90;;;;;;5052709;28;20551;-69
2021/10/16 00:07:46;;;;;;;7.43;4.10;;;10.20;99.90;;;;;;5061679;28;20207;-69
2021/10/16 00:10:12;;;;;;;5.30;3.23;;;10.30;99.90;;;;;;5052697;28;20210;-69
2021/10/16 00:12:39;;;;;;;4.87;2.97;;;10.30;99.90;;;;;;5053250;28;20213;-69
2021/10/16 00:15:07;;;;;;;6.67;3.67;;;10.30;99.90;;;;;;5057047;28;20209;-69
2021/10/16 00:17:34;;;;;;;5.47;3.20;;;10.40;99.90;;;;;;5064378;28;20226;-68
2021/10/16 00:20:01;;;;;;;6.87;4.50;;;10.30;99.90;;;;;;5066445;28;20204;-68
2021/10/16 00:22:29;;;;;;;4.17;3.00;;;10.30;99.90;;;;;;5054152;28;20591;-67
2021/10/16 00:24:56;;;;;;;5.17;3.07;;;10.30;99.90;;;;;;5054505;28;20220;-69
2021/10/16 00:27:23;;;;;;;4.47;2.67;;;10.30;99.90;;;;;;5065851;28;20555;-69
2021/10/16 00:29:50;;;;;;;5.23;2.93;;;10.30;99.90;;;;;;5064596;28;20235;-69
2021/10/16 00:32:16;;;;;;;6.93;3.17;;;10.40;99.90;;;;;;5072747;28;20205;-69
2021/10/16 00:34:43;;;;;;;6.30;3.53;;;10.30;99.90;;;;;;5072833;28;20539;-69
2021/10/16 00:37:10;;;;;;;7.47;3.00;;;10.40;99.90;;;;;;5072633;28;20287;-69
2021/10/16 00:39:38;;;;;;;5.63;2.97;;;10.40;99.90;;;;;;5070841;28;20602;-68
2021/10/16 00:42:07;;;;;;;4.47;2.83;;;10.40;99.90;;;;;;5070123;28;20209;-71
2021/10/16 00:44:36;;;;;;;5.00;3.37;;;10.40;99.90;;;;;;5071553;28;20519;-69
2021/10/16 00:47:03;;;;;;;6.90;2.97;;;10.30;99.90;;;;;;5073645;28;20239;-70
2021/10/16 00:49:31;;;;;;;8.17;3.23;;;10.40;99.90;;;;;;5065122;28;20213;-69
2021/10/16 00:52:01;;;;;;;4.70;2.77;;;10.40;99.90;;;;;;5072420;28;20202;-69
2021/10/16 00:54:28;;;;;;;9.63;3.23;;;10.40;99.90;;;;;;5055565;28;20213;-69
2021/10/16 00:57:00;;;;;;;6.93;3.20;;;10.30;99.90;;;;;;5052248;28;20611;-68
2021/10/16 00:59:29;;;;;;;5.83;3.30;;;10.30;99.90;;;;;;5063453;28;21471;-70
2021/10/16 01:01:56;;;;;;;8.77;2.80;;;10.30;99.90;;;;;;5060688;28;20236;-69
2021/10/16 01:04:23;;;;;;;8.00;3.10;;;10.30;99.90;;;;;;5051956;28;20202;-69
2021/10/16 01:06:50;;;;;;;5.30;3.50;;;10.30;99.90;;;;;;5052012;28;20220;-68
2021/10/16 01:09:17;;;;;;;6.43;3.07;;;10.40;99.90;;;;;;5064291;28;20721;-69
2021/10/16 01:11:49;;;;;;;9.03;3.87;;;10.40;99.90;;;;;;5064867;28;20198;-74
2021/10/16 01:14:17;;;;;;;6.97;3.77;;;10.40;99.90;;;;;;5052278;28;20210;-69
2021/10/16 01:16:48;;;;;;;8.87;3.57;;;10.40;99.90;;;;;;5054277;28;20578;-69
2021/10/16 01:19:17;;;;;;;7.63;3.80;;;10.40;99.90;;;;;;5053374;28;20201;-69
2021/10/16 01:21:47;;;;;;;6.60;3.27;;;10.40;99.90;;;;;;5052455;28;20665;-68
2021/10/16 01:24:16;;;;;;;8.67;4.17;;;10.40;99.90;;;;;;5052718;28;20645;-69
2021/10/16 01:26:46;;;;;;;8.97;4.40;;;10.40;99.90;;;;;;5052360;28;20288;-68
2021/10/16 01:29:17;;;;;;;6.63;3.90;;;10.40;99.90;;;;;;5054726;28;20590;-69
2021/10/16 01:31:45;;;;;;;5.47;3.93;;;10.40;99.90;;;;;;5062257;28;20198;-69
2021/10/16 01:34:12;;;;;;;10.17;5.30;;;10.30;99.90;;;;;;5051590;28;20202;-68
2021/10/16 01:36:43;;;;;;;8.77;4.03;;;10.40;99.90;;;;;;5051903;28;20226;-69
2021/10/16 01:39:12;;;;;;;6.00;3.97;;;10.40;99.90;;;;;;5057685;28;20213;-69
2021/10/16 01:41:39;;;;;;;8.63;3.87;;;10.40;99.90;;;;;;5051973;28;20214;-68
2021/10/16 01:44:07;;;;;;;8.73;4.13;;;10.40;99.90;;;;;;5056560;28;20626;-68
2021/10/16 01:46:34;;;;;;;6.67;3.67;;;10.40;99.90;;;;;;5060206;28;20210;-69
2021/10/16 01:49:07;;;;;;;7.57;3.80;;;10.40;99.90;;;;;;5060787;28;20205;-68
2021/10/16 01:51:34;;;;;;;7.50;4.43;;;10.40;99.90;;;;;;5064274;28;20197;-69
2021/10/16 01:54:01;;;;;;;8.70;3.90;;;10.40;99.90;;;;;;5051824;28;20220;-68
2021/10/16 01:56:29;;;;;;;8.70;4.27;;;10.40;99.90;;;;;;5051576;28;20212;-68
2021/10/16 01:58:56;;;;;;;8.40;4.07;;;10.40;99.90;;;;;;5051197;28;20206;-69
2021/10/16 02:01:23;;;;;;;8.73;3.63;;;10.40;99.90;;;;;;5057928;28;20485;-69
2021/10/16 02:03:49;;;;;;;7.90;4.10;;;10.40;99.90;;;;;;5051897;28;20228;-69
2021/10/16 02:06:17;;;;;;;7.97;3.83;;;10.40;99.90;;;;;;5052768;28;20212;-68
2021/10/16 02:08:44;;;;;;;6.13;4.10;;;10.30;99.90;;;;;;5061167;28;20688;-69
2021/10/16 02:11:10;;;;;;;10.17;3.87;;;10.30;99.90;;;;;;5057553;28;20206;-68
2021/10/16 02:13:39;;;;;;;5.97;3.67;;;10.30;99.90;;;;;;5055056;28;20205;-68
2021/10/16 02:16:06;;;;;;;8.17;4.40;;;10.30;99.90;;;;;;5058615;28;20198;-69
2021/10/16 02:18:33;;;;;;;5.73;4.07;;;10.30;99.90;;;;;;5054634;28;20260;-69
2021/10/16 02:21:00;;;;;;;7.10;3.87;;;10.40;99.90;;;;;;5060249;28;21001;-68
2021/10/16 02:23:27;;;;;;;10.17;3.83;;;10.30;99.90;;;;;;5052656;28;20213;-69
2021/10/16 02:25:54;;;;;;;10.67;4.17;;;10.30;99.90;;;;;;5051639;28;20545;-69
2021/10/16 02:28:20;;;;;;;6.23;3.50;;;10.30;99.90;;;;;;5051491;28;20217;-69
2021/10/16 02:30:49;;;;;;;7.43;3.40;;;10.30;99.90;;;;;;5056636;28;20241;-69
2021/10/16 02:33:15;;;;;;;5.20;3.57;;;10.30;99.90;;;;;;5057873;28;20546;-68
2021/10/16 02:35:43;;;;;;;8.37;3.33;;;10.30;99.90;;;;;;5052321;28;20226;-69
2021/10/16 02:38:09;;;;;;;8.30;3.53;;;10.30;99.90;;;;;;5059426;28;20252;-69
2021/10/16 02:40:36;;;;;;;9.10;3.63;;;10.20;99.90;;;;;;5051912;28;20244;-69
2021/10/16 02:43:04;;;;;;;7.57;3.50;;;10.20;99.90;;;;;;5053062;28;20212;-69
2021/10/16 02:45:31;;;;;;;6.43;4.13;;;10.20;99.90;;;;;;5054689;28;20213;-69
2021/10/16 02:47:59;;;;;;;8.87;4.07;;;10.20;99.90;;;;;;5054802;28;20518;-68
2021/10/16 02:50:26;;;;;;;6.17;3.60;;;10.20;99.90;;;;;;5067335;28;20221;-68
2021/10/16 02:52:53;;;;;;;9.57;3.57;;;10.20;99.90;;;;;;5069230;28;20647;-68
2021/10/16 02:55:20;;;;;;;9.63;3.60;;;10.20;99.90;;;;;;5054965;28;20201;-69
2021/10/16 02:57:47;;;;;;;7.83;3.90;;;10.20;99.90;;;;;;5054220;28;20226;-68
2021/10/16 03:00:15;;;;;;;5.90;2.83;;;10.20;99.90;;;;;;5060060;28;20208;-68
2021/10/16 03:02:42;;;;;;;9.77;3.93;;;10.20;99.90;;;;;;5061886;28;20213;-69
2021/10/16 03:05:10;;;;;;;6.13;3.23;;;10.30;99.90;;;;;;5070547;28;20292;-69
2021/10/16 03:07:37;;;;;;;7.23;3.90;;;10.30;99.90;;;;;;5061301;28;20657;-69
2021/10/16 03:10:05;;;;;;;6.47;3.10;;;10.30;99.90;;;;;;5053719;28;20203;-68
2021/10/16 03:12:32;;;;;;;5.50;3.20;;;10.30;99.90;;;;;;5062307;28;20211;-69
2021/10/16 03:14:58;;;;;;;8.53;3.50;;;10.30;99.90;;;;;;5057004;28;20205;-68
2021/10/16 03:17:25;;;;;;;6.37;3.60;;;10.20;99.90;;;;;;5054963;28;20233;-69
2021/10/16 03:19:52;;;;;;;8.73;3.60;;;10.30;99.90;;;;;;5053821;28;20573;-68
2021/10/16 03:22:20;;;;;;;9.50;3.80;;;10.30;99.90;;;;;;5067211;28;20201;-68
2021/10/16 03:24:47;;;;;;;8.07;3.80;;;10.30;99.90;;;;;;5059636;28;20206;-68
2021/10/16 03:27:14;;;;;;;6.77;3.87;;;10.30;99.90;;;;;;5053968;28;20210;-68
2021/10/16 03:29:41;;;;;;;10.57;3.77;;;10.30;99.90;;;;;;5053488;28;20240;-68
2021/10/16 03:32:07;;;;;;;7.07;4.23;;;10.20;99.90;;;;;;5056954;28;20281;-69
2021/10/16 03:34:34;;;;;;;6.47;4.00;;;10.20;99.90;;;;;;5053907;28;20644;-69
2021/10/16 03:37:01;;;;;;;7.57;4.33;;;10.10;99.90;;;;;;5055798;28;20316;-68
2021/10/16 03:39:29;;;;;;;9.37;4.23;;;10.20;99.90;;;;;;5056476;28;20222;-68
2021/10/16 03:41:56;;;;;;;6.23;3.70;;;10.10;99.90;;;;;;5056247;28;20215;-68
2021/10/16 03:44:23;;;;;;;8.60;5.07;;;10.10;99.90;;;;;;5061188;28;20292;-67
2021/10/16 03:46:50;;;;;;;8.33;4.07;;;10.10;99.90;;;;;;5059681;28;20566;-68
2021/10/16 03:49:17;;;;;;;11.67;4.83;;;10.10;99.90;;;;;;5053472;28;20256;-67
2021/10/16 03:51:43;;;;;;;8.50;5.30;;;10.10;99.90;;;;;;5061072;28;20288;-67
2021/10/16 03:54:10;;;;;;;9.43;4.97;;;10.10;99.90;;;;;;5058777;28;20722;-68
2021/10/16 03:56:38;;;;;;;7.53;4.53;;;10.10;99.90;;;;;;5053155;28;20205;-69
2021/10/16 03:59:05;;;;;;;8.93;5.00;;;10.10;99.90;;;;;;5052736;28;20230;-68
2021/10/16 04:01:32;;;;;;;10.07;4.80;;;10.10;99.90;;;;;;5059251;28;20218;-67
2021/10/16 04:03:59;;;;;;;8.47;4.47;;;10.10;99.90;;;;;;5053024;28;20214;-69
2021/10/16 04:06:26;;;;;;;9.57;5.13;;;10.10;99.90;;;;;;5066506;28;20293;-67
2021/10/16 04:08:53;;;;;;;11.13;5.10;;;10.10;99.90;;;;;;5060123;28;20308;-67
2021/10/16 04:11:20;;;;;;;8.13;4.27;;;10.00;99.90;;;;;;5057480;28;20210;-68
2021/10/16 04:13:51;;;;;;;8.90;4.80;;;10.10;99.90;;;;;;5052852;28;20210;-68
2021/10/16 04:16:18;;;;;;;11.80;4.60;;;10.10;99.90;;;;;;5053327;28;20317;-68
2021/10/16 04:18:44;;;;;;;10.13;4.30;;;10.10;99.90;;;;;;5051399;28;20221;-68
2021/10/16 04:21:11;;;;;;;11.87;5.53;;;10.10;99.90;;;;;;5067627;28;20205;-69
2021/10/16 04:23:38;;;;;;;10.23;4.40;;;10.10;99.90;;;;;;5053902;28;20216;-68
2021/10/16 04:26:05;;;;;;;9.40;4.80;;;10.10;99.90;;;;;;5052597;28;20209;-68
2021/10/16 04:28:32;;;;;;;9.83;4.00;;;10.10;99.90;;;;;;5052520;28;20538;-69
2021/10/16 04:31:00;;;;;;;11.07;5.00;;;10.10;99.90;;;;;;5056871;28;20234;-68
2021/10/16 04:33:27;;;;;;;8.37;4.27;;;10.10;99.90;;;;;;5052037;28;20224;-68
2021/10/16 04:35:53;;;;;;;9.23;4.37;;;10.10;99.90;;;;;;5052352;28;20560;-68
2021/10/16 04:38:20;;;;;;;8.40;4.43;;;10.10;99.90;;;;;;5052421;28;20230;-68
2021/10/16 04:40:47;;;;;;;6.47;3.97;;;10.10;99.90;;;;;;5060331;28;20563;-68
2021/10/16 04:43:14;;;;;;;5.43;4.17;;;10.10;99.90;;;;;;5060409;28;20260;-68
2021/10/16 04:45:44;;;;;;;10.93;4.63;;;10.10;99.90;;;;;;5052693;28;20293;-68
2021/10/16 04:48:12;;;;;;;8.77;3.67;;;10.10;99.90;;;;;;5052377;28;20210;-68
2021/10/16 04:50:39;;;;;;;8.77;4.30;;;10.10;99.90;;;;;;5052564;28;20321;-68
2021/10/16 04:53:06;;;;;;;7.57;4.10;;;10.10;99.90;;;;;;5071751;28;20205;-68
2021/10/16 04:55:33;;;;;;;7.33;3.90;;;10.10;99.90;;;;;;5060796;28;20208;-69
2021/10/16 04:58:00;;;;;;;7.97;4.23;;;10.00;99.90;;;;;;5051473;28;20221;-68
2021/10/16 05:00:27;;;;;;;8.17;3.90;;;10.00;99.90;;;;;;5052902;28;20665;-68
2021/10/16 05:02:54;;;;;;;7.70;4.27;;;10.00;99.90;;;;;;5055600;28;20212;-68
2021/10/16 05:05:22;;;;;;;9.53;4.40;;;10.00;99.90;;;;;;5051802;28;20577;-68
2021/10/16 05:07:49;;;;;;;7.47;4.30;;;10.00;99.90;;;;;;5052036;28;20210;-68
2021/10/16 05:10:15;;;;;;;10.63;4.43;;;10.00;99.90;;;;;;5055458;28;20201;-71
2021/10/16 05:12:42;;;;;;;8.83;4.53;;;10.10;99.90;;;;;;5059744;28;20214;-71
2021/10/16 05:15:10;;;;;;;10.33;4.50;;;10.00;99.90;;;;;;5056998;28;20297;-71
2021/10/16 05:17:37;;;;;;;7.53;3.90;;;10.00;99.90;;;;;;5063255;28;20693;-71
2021/10/16 05:20:05;;;;;;;7.57;4.30;;;10.00;99.90;;;;;;5052343;28;20205;-72
2021/10/16 05:22:33;;;;;;;9.53;4.20;;;10.00;99.90;;;;;;5052340;28;20213;-70
2021/10/16 05:25:00;;;;;;;9.80;4.90;;;10.00;99.90;;;;;;5052591;28;20210;-70
2021/10/16 05:27:27;;;;;;;7.27;3.90;;;10.00;99.90;;;;;;5052562;28;20212;-70
2021/10/16 05:29:54;;;;;;;9.87;4.50;;;10.00;99.90;;;;;;5051746;28;20760;-70
2021/10/16 05:32:21;;;;;;;7.77;4.57;;;10.00;99.90;;;;;;5065856;28;20202;-69
2021/10/16 05:34:47;;;;;;;7.33;4.57;;;10.00;99.90;;;;;;5052065;28;20206;-70
2021/10/16 05:37:14;;;;;;;8.47;4.07;;;10.00;99.90;;;;;;5056453;28;20225;-70
2021/10/16 05:39:43;;;;;;;9.57;4.87;;;10.00;99.90;;;;;;5063860;28;20708;-69
2021/10/16 05:42:09;;;;;;;11.30;4.53;;;10.00;99.90;;;;;;5071157;28;20201;-70
2021/10/16 05:44:36;;;;;;;6.20;3.60;;;10.00;99.90;;;;;;5062740;28;20240;-68
2021/10/16 05:47:03;;;;;;;9.23;4.00;;;10.00;99.90;;;;;;5066795;28;20209;-71
2021/10/16 05:49:31;;;;;;;5.83;3.40;;;;;;;;;;5071388;28;20310;-71
2021/10/16 05:51:58;;;;;;;6.97;4.10;;;10.00;99.90;;;;;;5068908;28;20212;-70
2021/10/16 05:54:24;;;;;;;7.43;3.90;;;10.00;99.90;;;;;;5065725;28;20219;-71
2021/10/16 05:56:53;;;;;;;7.60;4.07;;;10.00;99.90;;;;;;5057363;28;20291;-70
2021/10/16 05:59:20;;;;;;;8.50;4.13;;;10.00;99.90;;;;;;5058046;28;20248;-70
2021/10/16 06:01:46;;;;;;;11.93;3.40;;;10.00;99.90;;;;;;5065721;28;20216;-69
2021/10/16 06:04:13;;;;;;;7.47;3.73;;;10.00;99.90;;;;;;5060349;28;20593;-70
2021/10/16 06:06:40;;;;;;;14.17;4.43;;;10.00;99.90;;;;;;5071588;28;20201;-70
2021/10/16 06:09:07;;;;;;;8.77;4.10;;;10.00;99.90;;;;;;5073345;28;20209;-69
2021/10/16 06:11:34;;;;;;;7.23;3.97;;;10.00;99.90;;;;;;5060774;28;20214;-69
2021/10/16 06:14:02;;;;;;;5.57;3.23;;;10.00;99.90;;;;;;5062722;28;20224;-70
2021/10/16 06:16:29;;;;;;;10.93;4.80;;;10.00;99.90;;;;;;5069407;28;20205;-70
2021/10/16 06:18:56;;;;;;;12.03;4.33;;;10.00;99.90;;;;;;5059036;28;20252;-69
2021/10/16 06:21:23;;;;;;;9.00;4.53;;;10.10;99.90;;;;;;5060738;28;20206;-71
2021/10/16 06:23:50;;;;;;;9.83;4.57;;;10.10;99.90;;;;;;5062190;28;20550;-71
2021/10/16 06:26:17;;;;;;;6.43;3.57;;;10.00;99.90;;;;;;5075640;28;20239;-72
2021/10/16 06:28:44;;;;;;;7.17;4.33;;;10.10;99.90;;;;;;5064665;28;20280;-72
2021/10/16 06:31:12;;;;;;;7.73;4.10;;;10.10;99.90;;;;;;5065317;28;20217;-71
2021/10/16 06:33:39;;;;;;;9.07;3.67;;;10.10;99.90;;;;;;5062154;28;20205;-71
2021/10/16 06:36:06;;;;;;;7.50;3.57;;;10.10;99.90;;;;;;5066198;28;20340;-71
2021/10/16 06:38:32;;;;;;;9.83;3.63;;;10.20;99.90;;;;;;5064410;28;20233;-69
2021/10/16 06:41:02;;;;;;;10.13;3.30;;;10.20;99.90;;;;;;5062884;28;20642;-71
2021/10/16 06:43:29;;;;;;;7.90;3.60;;;10.30;99.90;;;;;;5074123;28;20219;-69
2021/10/16 06:45:56;;;;;;;10.73;3.30;;;10.30;99.90;;;;;;5066116;28;20671;-69
2021/10/16 06:48:24;;;;;;;11.93;3.07;;;10.20;99.90;;;;;;5073152;28;20202;-70
2021/10/16 06:50:51;;;;;;;4.53;2.50;;;10.20;99.90;;;;;;5066037;28;20233;-71
2021/10/16 06:53:18;;;;;;;7.50;4.27;;;10.20;99.90;;;;;;5055826;28;20202;-70
2021/10/16 06:55:45;;;;;;;9.67;3.77;;;10.30;99.90;;;;;;5055958;28;20210;-71
2021/10/16 06:58:12;;;;;;;6.47;2.53;;;10.30;99.90;;;;;;5053410;28;20237;-69
2021/10/16 07:00:39;;;;;;;7.83;3.17;;;10.40;99.90;;;;;;5065715;28;20275;-70
2021/10/16 07:03:07;;;;;;;9.10;3.43;;;10.40;99.90;;;;;;5071163;28;20293;-70
2021/10/16 07:05:35;;;;;;;10.47;2.47;;;10.40;99.90;;;;;;5056338;28;20206;-70
2021/10/16 07:08:02;;;;;;;8.33;2.37;;;10.40;99.90;;;;;;5074282;28;20309;-69
2021/10/16 07:10:29;;;;;;;6.77;2.77;;;10.40;99.90;;;;;;5069408;28;20243;-69
2021/10/16 07:12:56;;;;;;;9.67;3.80;;;10.60;99.90;;;;;;5070488;28;20206;-71
2021/10/16 07:15:23;;;;;;;8.07;3.20;;;10.50;99.90;;;;;;5066221;28;20251;-72
2021/10/16 07:17:50;;;;;;;10.90;4.03;;;10.50;99.90;;;;;;5067365;28;20214;-69
2021/10/16 07:20:17;;;;;;;6.87;3.90;;;10.50;99.90;;;;;;5074707;28;20232;-73
2021/10/16 07:22:45;;;;;;;8.10;3.33;;;10.50;99.90;;;;;;5066753;28;20300;-70
2021/10/16 07:25:12;;;;;;;11.97;3.80;;;10.50;99.90;;;;;;5062609;28;20247;-71
2021/10/16 07:27:40;;;;;;;7.57;3.27;;;10.40;99.90;;;;;;5065457;28;20300;-70
2021/10/16 07:30:08;;;;;;;7.77;3.50;;;10.40;99.90;;;;;;5070126;28;20308;-71
2021/10/16 07:32:35;;;;;;;9.47;3.33;;;10.40;99.90;;;;;;5060173;28;20206;-69
2021/10/16 07:35:02;;;;;;;7.97;3.10;;;10.40;99.90;;;;;;5066743;28;20220;-70
2021/10/16 07:37:29;;;;;;;13.27;4.13;;;10.40;99.90;;;;;;5069139;28;20584;-71
2021/10/16 07:39:57;;;;;;;12.33;4.77;;;10.40;99.90;;;;;;5069284;28;20221;-72
2021/10/16 07:42:24;;;;;;;13.00;4.60;;;10.40;99.90;;;;;;5074361;28;20213;-69
2021/10/16 07:44:51;;;;;;;10.97;4.77;;;10.40;99.90;;;;;;5059989;28;20633;-70
2021/10/16 07:47:17;;;;;;;9.50;4.47;;;10.40;99.90;;;;;;5070393;28;20288;-70
2021/10/16 07:49:44;;;;;;;9.63;4.30;;;10.40;99.90;;;;;;5065130;28;20646;-69
2021/10/16 07:52:11;;;;;;;9.93;4.53;;;10.40;99.90;;;;;;5072614;28;20288;-70
2021/10/16 07:54:38;;;;;;;8.17;4.90;;;10.50;99.90;;;;;;5065191;28;20292;-70
2021/10/16 07:57:06;;;;;;;12.07;4.40;;;10.60;99.90;;;;;;5064487;28;20324;-70
2021/10/16 07:59:33;;;;;;;9.20;4.80;;;10.70;99.90;;;;;;5072431;28;20229;-69
2021/10/16 08:02:00;;;;;;;9.07;4.30;;;10.80;99.90;;;;;;5063426;28;20293;-69
2021/10/16 08:04:27;;;;;;;7.73;3.43;;;10.90;99.90;;;;;;5054795;28;20634;-69
2021/10/16 08:06:54;;;;;;;13.10;4.83;;;11.00;99.90;;;;;;5072895;28;20721;-69
2021/10/16 08:09:21;;;;;;;11.20;4.00;;;11.10;99.90;;;;;;5065324;28;20198;-69
2021/10/16 08:11:48;;;;;;;8.13;3.53;;;11.10;99.90;;;;;;5067818;28;20635;-70
2021/10/16 08:14:16;;;;;;;6.93;3.40;;;11.20;99.90;;;;;;5060917;28;20209;-70
2021/10/16 08:16:43;;;;;;;5.93;3.10;;;11.20;99.90;;;;;;5073649;28;20228;-70
2021/10/16 08:19:10;;;;;;;5.07;2.77;;;11.20;99.90;;;;;;5055230;28;20316;-69
2021/10/16 08:21:36;;;;;;;5.97;2.77;;;11.20;99.90;;;;;;5069940;28;20202;-71
2021/10/16 08:24:03;;;;;;;8.63;3.30;;;11.10;99.90;;;;;;5066585;28;20300;-71
2021/10/16 08:26:30;;;;;;;5.10;2.47;;;11.10;99.90;;;;;;5052696;28;20214;-71
2021/10/16 08:28:57;;;;;;;8.50;3.10;;;11.10;99.90;;;;;;5063581;28;20245;-69
2021/10/16 08:31:26;;;;;;;7.40;3.53;;;11.00;99.90;;;;;;5068154;28;20204;-69
2021/10/16 08:33:53;;;;;;;9.97;3.60;;;11.10;99.90;;;;;;5069859;28;20297;-71
2021/10/16 08:36:21;;;;;;;7.77;3.77;;;11.10;99.90;;;;;;5063991;28;20232;-70
2021/10/16 08:38:50;;;;;;;6.77;3.13;;;11.10;99.90;;;;;;5062291;28;20225;-70
2021/10/16 08:41:17;;;;;;;7.20;3.27;;;11.10;99.90;;;;;;5066953;28;20579;-70
2021/10/16 08:43:44;;;;;;;10.77;3.93;;;11.10;99.90;;;;;;5073058;28;20224;-71
2021/10/16 08:46:13;;;;;;;8.83;3.67;;;11.40;99.90;;;;;;5072463;28;20834;-69
2021/10/16 08:48:42;;;;;;;7.37;3.30;;;11.90;99.90;;;;;;5068844;28;20213;-70
2021/10/16 08:51:10;;;;;;;9.30;3.37;;;12.60;99.90;;;;;;5067020;28;20205;-71
2021/10/16 08:53:38;;;;;;;8.40;2.90;;;13.20;99.90;;;;;;5052484;28;20236;-69
2021/10/16 08:56:05;;;;;;;6.90;2.60;;;14.40;99.90;;;;;;5057563;28;20201;-69
2021/10/16 08:58:33;;;;;;;6.70;2.83;;;15.80;99.90;;;;;;5068531;28;20208;-69
2021/10/16 09:01:02;;;;;;;7.60;2.90;;;18.00;99.90;;;;;;5057440;28;20643;-70
2021/10/16 09:03:30;;;;;;;6.55;3.08;;;18.70;95.30;;;;;;5051343;28;20565;-71
2021/10/16 09:06:09;;;;;;;11.52;2.85;;;19.50;92.60;;;;;;5053443;28;20209;-69
2021/10/16 09:08:38;;;;;;;10.52;2.90;;;19.80;90.90;;;;;;5058006;28;20209;-69
2021/10/16 09:11:16;;;;;;;7.53;2.90;;;19.90;83.70;;;;;;5055392;28;20198;-70
2021/10/16 09:13:44;;;;;;;14.93;2.70;;;19.40;78.30;;;;;;5054183;28;20205;-70
2021/10/16 09:16:25;;;;;;;9.60;3.20;;;18.80;78.50;;;;;;5056758;28;20228;-70
2021/10/16 09:18:58;;;;;;;6.78;2.40;;;18.90;89.20;;;;;;5053031;28;20577;-71
2021/10/16 09:21:28;;;;;;;8.20;2.50;;;19.60;80.40;;;;;;5054989;28;20206;-71
2021/10/16 09:24:01;;;;;;;4.45;2.28;;;20.30;75.20;;;;;;5057580;28;20288;-71
2021/10/16 09:26:28;;;;;;;5.20;2.40;;;19.90;69.90;;;;;;5054985;28;20206;-70
2021/10/16 09:28:56;;;;;;;8.43;2.95;;;19.60;75.30;;;;;;5064396;28;20590;-70
2021/10/16 09:31:30;;;;;;;4.80;2.15;;;21.10;71.90;;;;;;5050786;28;20202;-69
2021/10/16 09:33:56;;;;;;;7.25;2.30;;;21.50;64.60;;;;;;5055867;28;20209;-69
2021/10/16 09:36:24;;;;;;;7.03;2.03;;;20.80;62.00;;;;;;5053787;28;20753;-71
2021/10/16 09:38:53;;;;;;;5.00;1.98;;;20.10;63.50;;;;;;5055183;28;20207;-70
2021/10/16 09:41:24;;;;;;;8.88;2.88;;;19.50;65.30;;;;;;5051068;28;20559;-69
2021/10/16 09:43:51;;;;;;;7.72;2.67;;;18.90;65.70;;;;;;5068572;28;20208;-70
2021/10/16 09:46:19;;;;;;;9.15;2.67;;;19.40;74.80;;;;;;5071119;28;20229;-71
2021/10/16 09:48:47;;;;;;;6.95;2.33;;;20.40;67.50;;;;;;5070485;28;20209;-71
2021/10/16 09:51:15;;;;;;;6.78;1.80;;;20.30;63.30;;;;;;5070835;28;20213;-70
2021/10/16 09:53:44;;;;;;;6.40;2.00;;;19.70;62.90;;;;;;5075486;28;20205;-70
2021/10/16 09:56:13;;;;;;;4.55;2.42;;;18.80;62.90;;;;;;5056177;28;20216;-70
2021/10/16 09:58:41;;;;;;;10.85;2.33;;;18.00;65.10;;;;;;5065967;28;20209;-70
2021/10/16 10:01:09;;;;;;;9.03;2.50;;;17.20;67.40;;;;;;5059763;28;20225;-70
2021/10/16 10:03:41;;;;;;;6.60;2.77;;;16.50;69.80;;;;;;5055260;28;20205;-69
2021/10/16 10:06:10;;;;;;;7.77;2.70;;;16.10;72.70;;;;;;5054577;28;20206;-69
2021/10/16 10:08:37;;;;;;;5.67;2.67;;;16.00;74.20;;;;;;5067980;28;20232;-69
2021/10/16 10:11:04;;;;;;;7.80;2.77;;;15.90;75.20;;;;;;5072220;28;20286;-69
2021/10/16 10:13:35;;;;;;;7.37;2.60;;;16.00;76.90;;;;;;5073650;28;20217;-69
2021/10/16 10:16:02;;;;;;;7.27;2.93;;;16.00;75.60;;;;;;5064383;28;20197;-70
2021/10/16 10:21:14;;;;;;;8.60;3.20;;;16.10;84.00;;;;;;5060089;28;20598;-69
2021/10/16 10:23:53;;;;;;;11.37;3.23;;;16.70;81.80;;;;;;5068231;28;20205;-70
2021/10/16 10:26:25;;;;;;;10.20;3.40;;;16.90;77.10;;;;;;5067346;28;20561;-69
2021/10/16 10:28:57;;;;;;;10.33;2.83;;;16.90;77.60;;;;;;5074404;28;20580;-70
2021/10/16 10:31:54;;;;;;;7.23;3.00;;;16.70;76.60;;;;;;5071162;28;20303;-69
2021/10/16 10:34:24;;;;;;;6.77;2.67;;;16.20;77.10;;;;;;5067128;28;20212;-70
2021/10/16 10:36:53;;;;;;;9.20;3.90;;;15.80;78.50;;;;;;5065169;28;20229;-70
2021/10/16 10:39:52;;;;;;;9.50;3.67;;;15.80;81.70;;;;;;5069487;28;20572;-70
2021/10/16 10:42:53;;;;;;;11.70;3.90;;;16.00;81.70;;;;;;5057303;28;20202;-70
2021/10/16 10:45:39;;;;;;;6.97;3.13;;;16.70;91.60;;;;;;5056293;28;20646;-69
2021/10/16 10:48:12;;;;;;;7.77;2.93;;;18.40;80.00;;;;;;5054738;28;20542;-70
2021/10/16 10:50:51;;;;;;;8.25;2.78;;;18.40;73.20;;;;;;5056276;28;20678;-69
2021/10/16 10:53:33;;;;;;;7.35;3.17;;;17.70;72.40;;;;;;5058223;28;20217;-70
2021/10/16 10:56:02;;;;;;;7.60;3.20;;;17.20;73.80;;;;;;5056139;28;20233;-70
2021/10/16 10:59:01;;;;;;;8.63;2.83;;;16.60;75.50;;;;;;5058411;28;20211;-70
2021/10/16 11:01:50;;;;;;;7.27;3.10;;;16.00;76.10;;;;;;5055121;28;20237;-69
2021/10/16 11:04:42;;;;;;;8.93;3.10;;;15.40;77.90;;;;;;5054074;28;20198;-69
2021/10/16 11:07:11;;;;;;;10.23;3.77;;;14.90;79.70;;;;;;5061623;28;20643;-70
2021/10/16 11:09:39;;;;;;;10.60;3.50;;;14.50;81.50;;;;;;5063096;28;20248;-71
2021/10/16 11:12:07;;;;;;;10.30;3.50;;;14.20;83.20;;;;;;5054378;28;20202;-69
2021/10/16 11:14:36;;;;;;;10.97;3.77;;;14.00;84.60;;;;;;5054733;28;20573;-70
2021/10/16 11:17:06;;;;;;;8.63;3.80;;;13.80;86.10;;;;;;5063958;28;20208;-70
2021/10/16 11:19:50;;;;;;;7.10;3.67;;;13.70;87.40;;;;;;5059765;28;20231;-68
2021/10/16 11:22:17;;;;;;;11.17;3.80;;;13.70;88.70;;;;;;5057638;28;20206;-68
2021/10/16 11:24:44;;;;;;;9.47;4.07;;;13.60;89.20;;;;;;5057495;28;20206;-68
2021/10/16 11:27:11;;;;;;;8.70;2.97;;;13.40;89.30;;;;;;5064312;28;20228;-71
2021/10/16 11:29:39;;;;;;;13.67;5.00;;;13.30;89.50;;;;;;5071936;28;20225;-70
2021/10/16 11:32:16;;;;;;;7.27;2.60;;;13.20;90.10;;;;;;5065974;28;20583;-70
2021/10/16 11:34:56;;;;;;;13.57;3.47;;;13.00;90.40;;;;;;5065786;28;20221;-71
2021/10/16 11:37:41;;;;;;;9.63;3.23;;;13.00;90.90;;;;;;5065891;28;20221;-70
2021/10/16 11:40:10;;;;;;;7.20;3.30;;;13.00;91.30;;;;;;5067131;28;20220;-70
2021/10/16 11:42:38;;;;;;;10.73;3.57;;;13.20;91.80;;;;;;5071493;28;20205;-70
2021/10/16 11:45:11;;;;;;;8.40;3.50;;;13.50;91.80;;;;;;5070136;28;20214;-69
2021/10/16 11:47:41;;;;;;;7.10;3.03;;;13.80;91.20;;;;;;5067872;28;20208;-69
2021/10/16 11:50:17;;;;;;;10.53;4.03;;;14.00;90.70;;;;;;5069448;28;20620;-70
2021/10/16 11:52:45;;;;;;;6.47;3.37;;;13.90;90.50;;;;;;5061336;28;20635;-69
2021/10/16 11:55:19;;;;;;;10.57;4.80;;;13.90;90.70;;;;;;5054004;28;20206;-69
2021/10/16 11:57:46;;;;;;;8.83;4.20;;;13.80;90.70;;;;;;5072975;28;20211;-72
2021/10/16 12:00:28;;;;;;;7.93;4.23;;;13.60;91.00;;;;;;5065228;28;20225;-69
2021/10/16 12:02:57;;;;;;;7.23;3.47;;;13.40;91.50;;;;;;5063586;28;20681;-70
2021/10/16 12:05:26;;;;;;;8.20;4.57;;;13.30;92.10;;;;;;5072619;28;20208;-71
2021/10/16 12:07:55;;;;;;;9.30;4.40;;;13.20;92.60;;;;;;5072471;28;20657;-70
2021/10/16 12:10:30;;;;;;;13.73;5.57;;;13.20;93.10;;;;;;5065157;28;20206;-70
2021/10/16 12:12:59;;;;;;;13.50;4.90;;;13.30;93.30;;;;;;5067460;28;20205;-70
2021/10/16 12:15:26;;;;;;;10.87;5.10;;;13.50;93.30;;;;;;5074023;28;20207;-73
2021/10/16 12:17:53;;;;;;;8.77;4.60;;;13.60;93.20;;;;;;5067569;28;20252;-71
2021/10/16 12:20:22;;;;;;;10.10;4.97;;;13.70;93.10;;;;;;5070748;28;20693;-69
2021/10/16 12:22:59;;;;;;;7.50;4.33;;;13.70;92.90;;;;;;5071993;28;20621;-71
2021/10/16 12:25:26;;;;;;;11.60;4.83;;;13.60;92.50;;;;;;5072805;28;20669;-72
2021/10/16 12:28:01;;;;;;;13.33;5.20;;;13.50;92.40;;;;;;5060937;28;20666;-70
2021/10/16 12:30:28;;;;;;;13.10;7.57;;;13.30;92.50;;;;;;5060606;28;20236;-68
2021/10/16 12:33:06;;;;;;;10.00;5.80;;;13.10;93.00;;;;;;5066571;28;20712;-68
2021/10/16 12:35:34;;;;;;;10.37;6.07;;;13.00;93.50;;;;;;5069490;28;20200;-69
2021/10/16 12:38:02;;;;;;;11.60;5.90;;;12.80;94.00;;;;;;5070769;28;20292;-70
2021/10/16 12:40:37;;;;;;;8.03;5.37;;;12.60;94.40;;;;;;5066441;28;20244;-72
2021/10/16 12:43:04;;;;;;;8.87;6.07;;;12.60;95.20;;;;;;5065943;28;20271;-71
2021/10/16 12:45:38;;;;;;;10.93;6.00;;;12.60;95.10;;;;;;5053847;28;20301;-70
2021/10/16 12:48:27;;;;;;;18.40;6.80;;;12.70;95.20;;;;;;5066115;28;20733;-71
2021/10/16 12:50:57;;;;;;;13.90;6.30;;;12.60;95.60;;;;;;5065789;28;20191;-71
2021/10/16 12:53:24;;;;;;;14.23;5.97;;;12.60;95.30;;;;;;5059631;28;20669;-71
2021/10/16 12:55:51;;;;;;;11.87;6.27;;;12.60;95.30;;;;;;5070246;28;20205;-71